South Bloomingville, OH (43152)

7:14 PM EST on December 24, 2014 (GMT -0500)
Rock House State Park area | Change Station
CLOSE
Current Station
Personal Weather Station
Location: Laurelville, OH
Elevation: 1086 ft
Nearby Weather Stations
Active Advisory: Wind Advisory

Elev 1086 ft 39.48 °N, 82.66 °W | Updated 10 seconds ago

Rain
Rain
44.6 °F
Feels Like 40 °F
N
9.3
Wind Variable Wind from WSW
Gusts 11.0 mph

Today
High -- | Low -- °F
--% Chance of Precip.
Yesterday
High -- | Low -- °F
Precip. -- in
7:48 AM 5:11 PM
Waxing Crescent, 12% visible
Pressure 29.48 in
Visibility 10.0 miles
Clouds Scattered Clouds 1500 ft
Mostly Cloudy 2500 ft
Overcast 6000 ft
Windchill 40 °F
Dew Point 42 °F
Humidity 91%
Rainfall 0.14 in
Snow Depth Not available.
UV 0 out of 12
Pollen .10 out of 12
Air Quality Not available.
Flu Activity Not available.
SPECI KLHQ 250000Z AUTO 26021G30KT 10SM -RA SCT015 BKN025 OVC060 08/05 A2948 RMK AO2 PK WND 25029/2355 RAB2359 P0000 T00780050

More Conditions Fewer Conditions

Pressure 29.48 in
Visibility 10.0 miles
Clouds Scattered Clouds 1500 ft
Mostly Cloudy 2500 ft
Overcast 6000 ft
Windchill 40 °F
Dew Point 42 °F
Humidity 91%
Rainfall 0.14 in
Snow Depth Not available.
UV 0 out of 12
Pollen .10 out of 12
Air Quality Not available.
Flu Activity Not available.
SPECI KLHQ 250000Z AUTO 26021G30KT 10SM -RA SCT015 BKN025 OVC060 08/05 A2948 RMK AO2 PK WND 25029/2355 RAB2359 P0000 T00780050

More Conditions Fewer Conditions

10-Day Weather Forecast

Almanac

Astronomy

Dec. 24, 2014 Rise Set
Actual Time
Civil Twilight
Nautical Twilight
Astronomical Twilight
Moon
Length of Visible Light
Length of Day
Tomorrow will be .
, % of the Moon is Illuminated

Today's Extremes

State Highs State Lows

Community

WunderPhotos

Upload Photos

1,780,188 photos uploaded!

WunderBlogs® & News

Nearby

Air Quality

  Air Quality AQ Index Pollutant
Not available.

Snow Depth

Station Depth Elevation

Earthquake Activity

City Distance Mag. Time & Date
Minimum magnitude displayed is 2.5.

Coastal Water Temperatures

Place Temperature

Nearby Weather Stations